createdAt,value
2018-12-08T00:00:17.223Z,99458.34
2018-12-08T00:02:46.597Z,99456.31
2018-12-08T00:05:16.544Z,99463.88
2018-12-08T00:07:45.936Z,99466.98
2018-12-08T00:10:16.223Z,99477.72
2018-12-08T00:12:45.433Z,99483.80
2018-12-08T00:15:16.489Z,99482.34
2018-12-08T00:17:45.727Z,99474.34
2018-12-08T00:20:15.912Z,99483.79
2018-12-08T00:22:45.119Z,99476.30
2018-12-08T00:25:15.348Z,99480.09
2018-12-08T00:27:44.563Z,99481.53
2018-12-08T00:30:24.846Z,99479.38
2018-12-08T00:32:54.122Z,99478.51
2018-12-08T00:35:23.329Z,99469.22
2018-12-08T00:37:52.526Z,99472.90
2018-12-08T00:40:21.823Z,99476.45
2018-12-08T00:42:51.041Z,99472.45
2018-12-08T00:45:20.357Z,99477.28
2018-12-08T00:47:49.579Z,99474.84
2018-12-08T00:50:19.490Z,99476.17
2018-12-08T00:52:48.723Z,99480.36
2018-12-08T00:55:19.201Z,99493.16
2018-12-08T00:57:48.481Z,99491.34
2018-12-08T01:00:18.449Z,99490.48
2018-12-08T01:02:47.675Z,99482.52
2018-12-08T01:05:17.702Z,99490.77
2018-12-08T01:07:46.894Z,99494.33
2018-12-08T01:10:17.229Z,99497.44
2018-12-08T01:12:46.506Z,99497.09
2018-12-08T01:15:16.967Z,99496.11
2018-12-08T01:17:46.140Z,99503.75
2018-12-08T01:20:16.329Z,99501.36
2018-12-08T01:22:45.514Z,99505.80
2018-12-08T01:25:16.185Z,99506.41
2018-12-08T01:27:45.415Z,99496.64
2018-12-08T01:30:15.545Z,99498.39
2018-12-08T01:32:44.730Z,99505.44
2018-12-08T01:35:16.218Z,99507.94
2018-12-08T01:37:45.485Z,99512.38
2018-12-08T01:40:15.179Z,99511.96
2018-12-08T01:42:44.465Z,99516.19
2018-12-08T01:45:14.794Z,99519.30
2018-12-08T01:47:43.986Z,99512.67
2018-12-08T01:50:14.337Z,99509.34
2018-12-08T01:52:43.544Z,99515.65
2018-12-08T01:55:13.364Z,99530.88
2018-12-08T01:57:42.679Z,99536.72
2018-12-08T02:00:12.129Z,99534.46
2018-12-08T02:02:41.345Z,99531.86
2018-12-08T02:05:10.649Z,99526.90
2018-12-08T02:07:39.937Z,99526.59
2018-12-08T02:10:09.159Z,99527.19
2018-12-08T02:12:38.654Z,99535.50
2018-12-08T02:15:08.299Z,99541.27
2018-12-08T02:17:37.524Z,99547.50
2018-12-08T02:20:06.749Z,99546.36
2018-12-08T02:22:36.014Z,99548.01
2018-12-08T02:25:05.257Z,99540.52
2018-12-08T02:27:34.517Z,99533.64
2018-12-08T02:30:03.773Z,99536.66
2018-12-08T02:32:33.000Z,99536.56
2018-12-08T02:35:02.234Z,99530.98
2018-12-08T02:37:31.442Z,99539.58
2018-12-08T02:40:00.704Z,99547.70
2018-12-08T02:42:29.934Z,99541.58
2018-12-08T02:44:59.320Z,99543.80
2018-12-08T02:47:28.523Z,99548.53
2018-12-08T02:49:57.728Z,99552.72
2018-12-08T02:52:27.025Z,99566.77
2018-12-08T02:54:56.466Z,99563.27
2018-12-08T02:57:25.627Z,99552.89
2018-12-08T02:59:55.849Z,99564.61
2018-12-08T03:02:25.104Z,99558.65
2018-12-08T03:04:54.369Z,99563.23
2018-12-08T03:07:23.624Z,99552.13
2018-12-08T03:09:52.809Z,99556.25
2018-12-08T03:12:22.014Z,99568.13
2018-12-08T03:14:51.273Z,99562.01
2018-12-08T03:17:20.513Z,99574.56
2018-12-08T03:19:49.732Z,99568.85
2018-12-08T03:22:19.097Z,99566.13
2018-12-08T03:24:48.320Z,99567.46
2018-12-08T03:27:17.498Z,99561.30
2018-12-08T03:29:46.698Z,99565.41
2018-12-08T03:32:16.660Z,99564.02
2018-12-08T03:34:45.914Z,99561.41
2018-12-08T03:37:15.699Z,99558.13
2018-12-08T03:39:44.960Z,99563.84
2018-12-08T03:42:14.745Z,99562.91
2018-12-08T03:44:43.940Z,99547.91
2018-12-08T03:47:13.704Z,99556.86
2018-12-08T03:49:42.951Z,99551.55
2018-12-08T03:52:12.322Z,99556.41
2018-12-08T03:54:41.518Z,99561.77
2018-12-08T03:57:10.708Z,99559.66
2018-12-08T03:59:39.923Z,99563.20
2018-12-08T04:02:09.208Z,99560.56
2018-12-08T04:04:38.455Z,99577.27
2018-12-08T04:07:07.703Z,99580.62
2018-12-08T04:09:36.935Z,99583.88
2018-12-08T04:12:06.192Z,99593.02
2018-12-08T04:14:35.356Z,99574.00
2018-12-08T04:17:04.646Z,99578.44
2018-12-08T04:19:33.859Z,99575.42
2018-12-08T04:22:03.074Z,99575.85
2018-12-08T04:24:32.304Z,99567.86
2018-12-08T04:27:01.515Z,99576.86
2018-12-08T04:29:30.703Z,99568.70
2018-12-08T04:31:59.949Z,99574.09
2018-12-08T04:34:29.116Z,99578.14
2018-12-08T04:36:58.327Z,99571.41
2018-12-08T04:39:27.529Z,99575.27
2018-12-08T04:41:56.773Z,99586.20
2018-12-08T04:44:26.022Z,99571.67
2018-12-08T04:46:55.262Z,99574.72
2018-12-08T04:49:24.523Z,99559.78
2018-12-08T04:51:53.718Z,99566.85
2018-12-08T04:54:22.948Z,99561.53
2018-12-08T04:56:52.151Z,99562.72
2018-12-08T04:59:21.423Z,99557.20
2018-12-08T05:01:50.625Z,99558.61
2018-12-08T05:04:19.845Z,99552.70
2018-12-08T05:06:49.166Z,99549.59
2018-12-08T05:09:18.271Z,99549.91
2018-12-08T05:11:47.602Z,99557.69
2018-12-08T05:14:16.867Z,99556.36
2018-12-08T05:16:46.363Z,99558.97
2018-12-08T05:19:16.085Z,99555.74
2018-12-08T05:21:45.290Z,99550.01
2018-12-08T05:24:15.067Z,99562.06
2018-12-08T05:26:44.517Z,99567.66
2018-12-08T05:29:14.282Z,99568.16
2018-12-08T05:31:43.540Z,99566.26
2018-12-08T05:34:13.178Z,99561.85
2018-12-08T05:36:42.474Z,99553.41
2018-12-08T05:39:11.836Z,99559.19
2018-12-08T05:41:41.044Z,99566.48
2018-12-08T05:44:10.267Z,99553.44
2018-12-08T05:46:39.504Z,99560.45
2018-12-08T05:49:08.685Z,99553.09
2018-12-08T05:51:37.908Z,99554.66
2018-12-08T05:54:07.152Z,99568.20
2018-12-08T05:56:36.421Z,99555.51
2018-12-08T05:59:05.618Z,99561.22
2018-12-08T06:01:34.816Z,99561.03
2018-12-08T06:04:04.089Z,99550.22
2018-12-08T06:06:33.304Z,99555.80
2018-12-08T06:09:02.618Z,99551.73
2018-12-08T06:11:31.842Z,99554.84
2018-12-08T06:14:01.173Z,99545.36
2018-12-08T06:16:30.284Z,99545.86
2018-12-08T06:18:59.576Z,99548.05
2018-12-08T06:21:36.340Z,99536.37
2018-12-08T06:24:05.613Z,99543.70
2018-12-08T06:26:44.653Z,99552.05
2018-12-08T06:29:15.161Z,99533.39
2018-12-08T06:31:44.770Z,99533.67
2018-12-08T06:34:14.671Z,99531.77
2018-12-08T06:36:43.885Z,99527.36
2018-12-08T06:39:13.686Z,99508.98
2018-12-08T06:41:42.870Z,99530.95
2018-12-08T06:44:12.281Z,99525.71
2018-12-08T06:46:41.507Z,99529.20
2018-12-08T06:49:10.722Z,99535.02
2018-12-08T06:51:39.933Z,99530.56
2018-12-08T06:54:09.122Z,99529.32
2018-12-08T06:56:38.288Z,99534.42
2018-12-08T06:59:07.501Z,99536.33
2018-12-08T07:01:36.706Z,99537.11
2018-12-08T07:04:05.967Z,99543.63
2018-12-08T07:06:35.197Z,99534.04
2018-12-08T07:09:05.704Z,99533.25
2018-12-08T07:11:34.895Z,99530.23
2018-12-08T07:14:04.157Z,99519.88
2018-12-08T07:16:33.350Z,99523.92
2018-12-08T07:19:02.642Z,99504.40
2018-12-08T07:21:34.886Z,99494.60
2018-12-08T07:24:04.099Z,99506.49
2018-12-08T07:26:33.346Z,99502.61
2018-12-08T07:29:03.323Z,99504.44
2018-12-08T07:31:32.505Z,99500.44
2018-12-08T07:34:01.784Z,99503.92
2018-12-08T07:36:31.011Z,99515.50
2018-12-08T07:39:00.245Z,99508.25
2018-12-08T07:41:29.565Z,99502.91
2018-12-08T07:43:58.805Z,99508.33
2018-12-08T07:46:28.105Z,99504.91
2018-12-08T07:48:57.310Z,99515.27
2018-12-08T07:51:26.505Z,99522.44
2018-12-08T07:53:55.735Z,99519.31
2018-12-08T07:56:24.957Z,99515.11
2018-12-08T07:58:54.186Z,99513.66
2018-12-08T08:01:23.545Z,99511.63
2018-12-08T08:03:52.844Z,99504.13
2018-12-08T08:06:22.158Z,99497.85
2018-12-08T08:08:51.438Z,99498.47
2018-12-08T08:11:20.667Z,99489.96
2018-12-08T08:13:49.863Z,99491.57
2018-12-08T08:16:19.039Z,99492.09
2018-12-08T08:18:48.240Z,99485.77
2018-12-08T08:21:17.537Z,99487.26
2018-12-08T08:23:46.798Z,99486.98
2018-12-08T08:26:16.054Z,99484.08
2018-12-08T08:28:45.337Z,99480.20
2018-12-08T08:31:14.750Z,99482.86
2018-12-08T08:33:43.968Z,99484.82
2018-12-08T08:36:13.190Z,99483.36
2018-12-08T08:38:42.405Z,99484.08
2018-12-08T08:41:11.901Z,99471.75
2018-12-08T08:43:41.202Z,99464.23
2018-12-08T08:46:10.631Z,99472.11
2018-12-08T08:48:39.820Z,99466.15
2018-12-08T08:51:09.678Z,99469.91
2018-12-08T08:53:38.859Z,99466.90
2018-12-08T08:56:08.496Z,99468.23
2018-12-08T08:58:37.976Z,99454.27
2018-12-08T09:01:07.540Z,99444.81
2018-12-08T09:03:36.769Z,99435.46
2018-12-08T09:06:05.948Z,99442.88
2018-12-08T09:08:35.156Z,99450.05
2018-12-08T09:11:04.379Z,99444.47
2018-12-08T09:13:33.989Z,99436.47
2018-12-08T09:16:03.181Z,99434.47
2018-12-08T09:18:32.385Z,99428.30
2018-12-08T09:21:01.646Z,99437.30
2018-12-08T09:23:31.066Z,99448.02
2018-12-08T09:26:00.285Z,99447.06
2018-12-08T09:28:29.551Z,99447.06
2018-12-08T09:30:58.783Z,99449.50
2018-12-08T09:33:27.978Z,99453.56
2018-12-08T09:35:57.164Z,99457.64
2018-12-08T09:38:26.441Z,99449.95
2018-12-08T09:40:55.641Z,99449.00
2018-12-08T09:43:24.857Z,99444.20
2018-12-08T09:45:54.055Z,99443.34
2018-12-08T09:48:23.293Z,99447.34
2018-12-08T09:50:52.633Z,99433.62
2018-12-08T09:53:21.889Z,99434.14
2018-12-08T09:55:51.147Z,99438.27
2018-12-08T09:58:20.435Z,99436.41
2018-12-08T10:00:49.664Z,99435.74
2018-12-08T10:03:18.917Z,99443.28
2018-12-08T10:05:48.126Z,99438.77
2018-12-08T10:08:17.311Z,99440.06
2018-12-08T10:10:46.592Z,99444.57
2018-12-08T10:13:15.789Z,99429.31
2018-12-08T10:15:45.889Z,99424.92
2018-12-08T10:18:15.008Z,99426.33
2018-12-08T10:20:44.191Z,99425.70
2018-12-08T10:23:13.388Z,99425.08
2018-12-08T10:25:42.886Z,99424.10
2018-12-08T10:28:12.106Z,99431.40
2018-12-08T10:30:41.438Z,99424.22
2018-12-08T10:33:10.955Z,99426.41
2018-12-08T10:35:40.228Z,99424.80
2018-12-08T10:38:09.933Z,99419.85
2018-12-08T10:40:39.186Z,99420.98
2018-12-08T10:43:08.549Z,99418.23
2018-12-08T10:45:37.814Z,99411.45
2018-12-08T10:48:07.212Z,99407.88
2018-12-08T10:50:36.529Z,99420.91
2018-12-08T10:53:05.778Z,99408.66
2018-12-08T10:55:35.017Z,99402.22
2018-12-08T10:58:04.313Z,99395.30
2018-12-08T11:00:39.949Z,99400.34
2018-12-08T11:03:15.755Z,99390.33
2018-12-08T11:05:45.925Z,99389.67
2018-12-08T11:08:16.300Z,99374.28
2018-12-08T11:10:46.710Z,99372.66
2018-12-08T11:13:17.960Z,99373.56
2018-12-08T11:15:48.319Z,99370.81
2018-12-08T11:18:18.544Z,99366.09
2018-12-08T11:20:49.094Z,99376.11
2018-12-08T11:23:18.313Z,99372.92
2018-12-08T11:25:47.434Z,99374.41
2018-12-08T11:28:16.597Z,99383.03
2018-12-08T11:30:46.041Z,99375.55
2018-12-08T11:33:15.205Z,99366.45
2018-12-08T11:35:44.445Z,99365.42
2018-12-08T11:38:16.481Z,99366.63
2018-12-08T11:40:45.760Z,99365.05
2018-12-08T11:43:14.937Z,99358.48
2018-12-08T11:45:44.145Z,99365.82
2018-12-08T11:48:13.358Z,99378.47
2018-12-08T11:50:42.599Z,99367.67
2018-12-08T11:53:11.857Z,99387.20
2018-12-08T11:55:41.008Z,99383.30
2018-12-08T11:58:10.904Z,99380.36
2018-12-08T12:00:40.176Z,99387.55
2018-12-08T12:03:10.074Z,99386.48
2018-12-08T12:05:39.357Z,99385.08
2018-12-08T12:08:09.229Z,99378.95
2018-12-08T12:10:38.429Z,99383.11
2018-12-08T12:13:08.796Z,99371.22
2018-12-08T12:15:37.953Z,99374.81
2018-12-08T12:18:07.333Z,99363.50
2018-12-08T12:20:36.546Z,99363.70
2018-12-08T12:23:05.838Z,99360.11
2018-12-08T12:25:35.098Z,99366.00
2018-12-08T12:28:04.410Z,99362.52
2018-12-08T12:30:33.693Z,99361.50
2018-12-08T12:33:02.927Z,99357.56
2018-12-08T12:35:32.129Z,99355.79
2018-12-08T12:38:01.418Z,99364.14
2018-12-08T12:40:30.578Z,99362.60
2018-12-08T12:42:59.777Z,99365.20
2018-12-08T12:45:29.038Z,99355.48
2018-12-08T12:47:58.203Z,99347.99
2018-12-08T12:50:27.438Z,99345.76
2018-12-08T12:52:56.659Z,99340.82
2018-12-08T12:55:26.095Z,99344.96
2018-12-08T12:57:55.317Z,99342.58
2018-12-08T13:00:24.592Z,99348.36
2018-12-08T13:02:53.836Z,99348.97
2018-12-08T13:05:23.106Z,99348.88
2018-12-08T13:07:52.301Z,99346.08
2018-12-08T13:10:21.507Z,99361.40
2018-12-08T13:12:50.673Z,99351.42
2018-12-08T13:15:19.956Z,99351.53
2018-12-08T13:17:49.372Z,99345.05
2018-12-08T13:20:18.627Z,99346.91
2018-12-08T13:22:48.074Z,99342.78
2018-12-08T13:25:23.326Z,99351.11
2018-12-08T13:27:52.533Z,99355.75
2018-12-08T13:30:21.732Z,99343.80
2018-12-08T13:32:50.988Z,99348.44
2018-12-08T13:35:31.307Z,99348.11
2018-12-08T13:38:00.484Z,99348.32
2018-12-08T13:40:29.725Z,99351.09
2018-12-08T13:42:58.997Z,99339.90
2018-12-08T13:45:28.207Z,99349.67
2018-12-08T13:47:57.378Z,99333.21
2018-12-08T13:50:26.604Z,99348.23
2018-12-08T13:52:55.752Z,99334.45
2018-12-08T13:55:24.945Z,99336.41
2018-12-08T13:57:54.312Z,99347.93
2018-12-08T14:00:23.586Z,99352.47
2018-12-08T14:02:52.800Z,99341.25
2018-12-08T14:05:22.050Z,99341.05
2018-12-08T14:07:51.349Z,99341.66
2018-12-08T14:10:20.617Z,99337.86
2018-12-08T14:12:49.832Z,99353.61
2018-12-08T14:15:19.085Z,99359.18
2018-12-08T14:17:48.294Z,99363.09
2018-12-08T14:20:25.329Z,99360.59
2018-12-08T14:22:54.573Z,99361.21
2018-12-08T14:25:23.851Z,99367.17
2018-12-08T14:27:53.033Z,99365.55
2018-12-08T14:30:22.385Z,99360.88
2018-12-08T14:32:51.742Z,99355.97
2018-12-08T14:35:21.000Z,99359.72
2018-12-08T14:37:50.268Z,99357.77
2018-12-08T14:40:19.449Z,99362.58
2018-12-08T14:42:48.626Z,99345.30
2018-12-08T14:45:17.843Z,99353.70
2018-12-08T14:47:47.032Z,99345.89
2018-12-08T14:50:16.223Z,99344.42
2018-12-08T14:52:45.512Z,99348.94
2018-12-08T14:55:15.010Z,99347.53
2018-12-08T14:57:44.289Z,99341.88
2018-12-08T15:00:40.662Z,99357.98
2018-12-08T15:03:10.391Z,99357.78
2018-12-08T15:05:39.638Z,99341.75
2018-12-08T15:08:09.214Z,99342.88
2018-12-08T15:10:38.449Z,99336.09
2018-12-08T15:13:08.087Z,99342.67
2018-12-08T15:15:37.416Z,99342.57
2018-12-08T15:18:06.599Z,99339.41
2018-12-08T15:20:35.830Z,99338.14
2018-12-08T15:23:05.134Z,99354.17
2018-12-08T15:25:34.386Z,99352.19
2018-12-08T15:28:03.669Z,99350.07
2018-12-08T15:30:33.705Z,99353.16
2018-12-08T15:33:02.988Z,99346.66
2018-12-08T15:35:32.216Z,99341.42
2018-12-08T15:38:01.535Z,99321.84
2018-12-08T15:40:30.784Z,99321.53
2018-12-08T15:43:00.039Z,99317.84
2018-12-08T15:45:29.301Z,99324.95
2018-12-08T15:47:58.643Z,99328.52
2018-12-08T15:50:27.892Z,99324.86
2018-12-08T15:52:57.086Z,99316.12
2018-12-08T15:55:26.305Z,99318.76
2018-12-08T15:57:55.715Z,99329.41
2018-12-08T16:00:25.221Z,99322.89
2018-12-08T16:02:54.701Z,99314.36
2018-12-08T16:05:23.844Z,99319.47
2018-12-08T16:07:53.067Z,99320.59
2018-12-08T16:10:22.316Z,99314.47
2018-12-08T16:12:51.567Z,99308.13
2018-12-08T16:15:20.761Z,99311.94
2018-12-08T16:17:49.993Z,99302.28
2018-12-08T16:20:19.687Z,99310.60
2018-12-08T16:22:48.863Z,99306.59
2018-12-08T16:25:18.322Z,99308.37
2018-12-08T16:27:47.548Z,99304.95
2018-12-08T16:30:17.665Z,99310.60
2018-12-08T16:32:47.068Z,99312.63
2018-12-08T16:35:17.028Z,99310.30
2018-12-08T16:37:46.220Z,99313.38
2018-12-08T16:40:17.728Z,99306.42
2018-12-08T16:42:47.016Z,99303.61
2018-12-08T16:45:17.215Z,99304.19
2018-12-08T16:47:46.377Z,99299.16
2018-12-08T16:50:16.881Z,99296.45
2018-12-08T16:52:46.326Z,99279.88
2018-12-08T16:55:17.248Z,99279.81
2018-12-08T16:57:46.491Z,99288.16
2018-12-08T17:00:18.572Z,99279.64
2018-12-08T17:02:48.035Z,99279.06
2018-12-08T17:05:18.915Z,99272.89
2018-12-08T17:07:48.382Z,99270.98
2018-12-08T17:10:18.131Z,99275.33
2018-12-08T17:12:50.106Z,99265.84
2018-12-08T17:15:18.784Z,99266.14
2018-12-08T17:17:48.085Z,99253.41
2018-12-08T17:20:18.090Z,99256.48
2018-12-08T17:22:47.389Z,99248.69
2018-12-08T17:25:17.401Z,99245.80
2018-12-08T17:27:46.652Z,99239.95
2018-12-08T17:30:16.578Z,99234.84
2018-12-08T17:32:45.958Z,99229.71
2018-12-08T17:35:16.758Z,99231.08
2018-12-08T17:37:46.464Z,99232.17
2018-12-08T17:40:17.019Z,99231.63
2018-12-08T17:42:46.301Z,99224.06
2018-12-08T17:45:18.074Z,99234.33
2018-12-08T17:47:47.355Z,99223.60
2018-12-08T17:50:17.857Z,99225.12
2018-12-08T17:52:47.304Z,99225.80
2018-12-08T17:55:18.249Z,99230.40
2018-12-08T17:57:47.464Z,99225.50
2018-12-08T18:00:17.549Z,99214.89
2018-12-08T18:02:46.801Z,99203.69
2018-12-08T18:05:16.803Z,99207.21
2018-12-08T18:07:46.038Z,99193.98
2018-12-08T18:10:15.890Z,99195.80
2018-12-08T18:12:45.139Z,99189.80
2018-12-08T18:15:15.848Z,99185.48
2018-12-08T18:17:45.043Z,99178.47
2018-12-08T18:20:15.176Z,99175.05
2018-12-08T18:22:44.912Z,99166.67
2018-12-08T18:25:14.949Z,99167.27
2018-12-08T18:27:44.191Z,99153.63
2018-12-08T18:30:14.071Z,99159.89
2018-12-08T18:32:43.273Z,99148.91
2018-12-08T18:35:13.661Z,99141.70
2018-12-08T18:37:42.895Z,99141.09
2018-12-08T18:40:12.681Z,99132.97
2018-12-08T18:42:42.344Z,99128.55
2018-12-08T18:45:11.561Z,99120.84
2018-12-08T18:47:41.238Z,99123.21
2018-12-08T18:50:10.609Z,99111.80
2018-12-08T18:52:40.381Z,99099.98
2018-12-08T18:55:13.049Z,99099.65
2018-12-08T18:57:42.766Z,99093.48
2018-12-08T19:00:13.526Z,99077.14
2018-12-08T19:02:44.310Z,99082.00
2018-12-08T19:05:14.055Z,99065.35
2018-12-08T19:07:43.238Z,99067.09
2018-12-08T19:10:12.832Z,99053.84
2018-12-08T19:12:42.096Z,99057.24
2018-12-08T19:15:11.413Z,99046.25
2018-12-08T19:17:40.840Z,99041.11
2018-12-08T19:20:10.029Z,99037.20
2018-12-08T19:22:39.250Z,99031.85
2018-12-08T19:25:08.500Z,99020.25
2018-12-08T19:27:37.697Z,99019.13
2018-12-08T19:30:08.821Z,99009.95
2018-12-08T19:32:38.155Z,99000.00
2018-12-08T19:35:07.443Z,98994.86
2018-12-08T19:37:36.679Z,98978.63
2018-12-08T19:40:06.720Z,98972.06
2018-12-08T19:42:35.961Z,98970.53
2018-12-08T19:45:05.336Z,98966.73
2018-12-08T19:47:34.717Z,98953.38
2018-12-08T19:50:04.069Z,98955.13
2018-12-08T19:52:33.223Z,98949.19
2018-12-08T19:55:02.421Z,98938.48
2018-12-08T19:57:31.645Z,98931.28
2018-12-08T20:00:00.826Z,98918.33
2018-12-08T20:02:30.087Z,98910.02
2018-12-08T20:04:59.314Z,98911.35
2018-12-08T20:07:28.510Z,98903.03
2018-12-08T20:09:57.716Z,98897.48
2018-12-08T20:12:26.990Z,98881.10
2018-12-08T20:14:57.574Z,98875.81
2018-12-08T20:17:26.709Z,98870.39
2018-12-08T20:19:56.001Z,98869.78
2018-12-08T20:22:25.202Z,98840.28
2018-12-08T20:24:54.395Z,98848.11
2018-12-08T20:27:24.157Z,98840.58
2018-12-08T20:29:54.329Z,98828.57
2018-12-08T20:32:23.519Z,98811.94
2018-12-08T20:34:52.773Z,98798.51
2018-12-08T20:37:21.965Z,98794.50
2018-12-08T20:39:51.300Z,98792.36
2018-12-08T20:42:20.457Z,98780.84
2018-12-08T20:44:49.626Z,98767.06
2018-12-08T20:47:18.923Z,98766.03
2018-12-08T20:49:48.123Z,98770.76
2018-12-08T20:52:17.345Z,98771.29
2018-12-08T20:54:46.725Z,98766.55
2018-12-08T20:57:16.155Z,98767.38
2018-12-08T20:59:45.391Z,98759.81
2018-12-08T21:02:15.259Z,98754.38
2018-12-08T21:04:44.416Z,98736.41
2018-12-08T21:07:14.395Z,98730.14
2018-12-08T21:09:45.533Z,98714.70
2018-12-08T21:12:15.468Z,98704.16
2018-12-08T21:14:44.678Z,98702.36
2018-12-08T21:17:15.024Z,98698.46
2018-12-08T21:19:44.551Z,98699.91
2018-12-08T21:22:14.382Z,98689.53
2018-12-08T21:24:43.541Z,98665.36
2018-12-08T21:27:13.181Z,98664.68
2018-12-08T21:29:42.417Z,98649.41
2018-12-08T21:32:11.623Z,98639.66
2018-12-08T21:34:40.819Z,98632.55
2018-12-08T21:37:10.015Z,98632.13
2018-12-08T21:39:39.261Z,98630.91
2018-12-08T21:42:08.509Z,98623.38
2018-12-08T21:44:37.692Z,98621.82
2018-12-08T21:47:07.014Z,98611.98
2018-12-08T21:49:36.186Z,98596.00
2018-12-08T21:52:05.430Z,98593.63
2018-12-08T21:54:34.601Z,98580.64
2018-12-08T21:57:03.879Z,98592.96
2018-12-08T21:59:33.132Z,98581.23
2018-12-08T22:02:02.398Z,98577.61
2018-12-08T22:04:31.694Z,98572.16
2018-12-08T22:07:00.960Z,98543.30
2018-12-08T22:09:30.174Z,98547.86
2018-12-08T22:11:59.419Z,98527.16
2018-12-08T22:14:28.653Z,98522.71
2018-12-08T22:16:57.852Z,98516.11
2018-12-08T22:19:27.100Z,98498.61
2018-12-08T22:21:56.272Z,98486.30
2018-12-08T22:24:25.529Z,98483.80
2018-12-08T22:26:54.794Z,98481.23
2018-12-08T22:29:24.025Z,98463.13
2018-12-08T22:31:53.366Z,98465.08
2018-12-08T22:34:22.688Z,98451.64
2018-12-08T22:36:51.846Z,98439.69
2018-12-08T22:39:21.050Z,98430.20
2018-12-08T22:41:50.480Z,98419.29
2018-12-08T22:44:19.789Z,98415.58
2018-12-08T22:46:48.978Z,98412.67
2018-12-08T22:49:18.326Z,98396.94
2018-12-08T22:51:47.550Z,98397.40
2018-12-08T22:54:16.945Z,98379.28
2018-12-08T22:56:46.207Z,98377.42
2018-12-08T22:59:15.426Z,98368.00
2018-12-08T23:01:44.797Z,98382.24
2018-12-08T23:04:14.835Z,98375.85
2018-12-08T23:06:53.828Z,98374.67
2018-12-08T23:09:23.091Z,98374.16
2018-12-08T23:11:52.321Z,98372.71
2018-12-08T23:14:21.581Z,98367.77
2018-12-08T23:16:51.424Z,98363.60
2018-12-08T23:19:20.603Z,98356.69
2018-12-08T23:21:49.874Z,98354.02
2018-12-08T23:24:19.218Z,98333.63
2018-12-08T23:26:48.597Z,98343.85
2018-12-08T23:29:17.783Z,98332.16
2018-12-08T23:31:47.016Z,98401.11
2018-12-08T23:34:16.602Z,98422.03
2018-12-08T23:36:45.800Z,98412.91
2018-12-08T23:39:15.566Z,98395.31
2018-12-08T23:41:44.834Z,98393.68
2018-12-08T23:44:14.529Z,98396.48
2018-12-08T23:46:43.762Z,98377.25
2018-12-08T23:49:13.601Z,98391.89
2018-12-08T23:51:42.823Z,98384.09
2018-12-08T23:54:12.168Z,98383.70
2018-12-08T23:56:41.413Z,98376.81
2018-12-08T23:59:10.602Z,98375.25
